createdAt,value
2018-03-18T00:00:42.362Z,49.91
2018-03-18T00:02:13.383Z,49.38
2018-03-18T00:03:36.277Z,49.73
2018-03-18T00:05:07.065Z,49.38
2018-03-18T00:06:30.084Z,50.14
2018-03-18T00:08:01.120Z,50.40
2018-03-18T00:09:28.014Z,49.87
2018-03-18T00:10:55.095Z,49.80
2018-03-18T00:12:23.911Z,49.81
2018-03-18T00:13:48.793Z,49.67
2018-03-18T00:15:11.720Z,50.00
2018-03-18T00:16:38.650Z,50.39
2018-03-18T00:18:09.561Z,50.54
2018-03-18T00:19:36.416Z,49.80
2018-03-18T00:21:03.307Z,49.64
2018-03-18T00:22:26.420Z,50.44
2018-03-18T00:23:57.216Z,49.66
2018-03-18T00:25:20.166Z,49.23
2018-03-18T00:26:46.959Z,49.51
2018-03-18T00:28:17.982Z,49.40
2018-03-18T00:29:41.013Z,49.68
2018-03-18T00:31:12.000Z,49.65
2018-03-18T00:32:34.925Z,50.26
2018-03-18T00:34:05.983Z,49.79
2018-03-18T00:35:29.024Z,50.00
2018-03-18T00:36:56.163Z,51.04
2018-03-18T00:38:27.068Z,50.51
2018-03-18T00:39:54.141Z,50.47
2018-03-18T00:41:21.216Z,50.59
2018-03-18T00:42:48.254Z,50.35
2018-03-18T00:44:15.232Z,50.12
2018-03-18T00:45:38.259Z,49.81
2018-03-18T00:47:08.991Z,49.61
2018-03-18T00:48:35.976Z,50.38
2018-03-18T00:50:03.041Z,51.16
2018-03-18T00:51:29.916Z,51.13
2018-03-18T00:52:56.828Z,50.61
2018-03-18T00:54:19.805Z,50.36
2018-03-18T00:55:46.838Z,50.18
2018-03-18T00:57:17.791Z,50.00
2018-03-18T00:58:44.825Z,50.93
2018-03-18T01:00:11.932Z,49.88
2018-03-18T01:01:38.820Z,50.57
2018-03-18T01:03:06.035Z,49.86
2018-03-18T01:04:29.128Z,50.26
2018-03-18T01:05:56.200Z,50.24
2018-03-18T01:07:26.909Z,49.89
2018-03-18T01:08:49.571Z,49.97
2018-03-18T01:10:20.616Z,50.30
2018-03-18T01:11:43.694Z,50.00
2018-03-18T01:13:10.680Z,50.38
2018-03-18T01:14:41.551Z,49.99
2018-03-18T01:16:04.336Z,50.06
2018-03-18T01:17:35.309Z,50.68
2018-03-18T01:18:58.461Z,51.10
2018-03-18T01:20:29.490Z,50.67
2018-03-18T01:21:52.331Z,51.11
2018-03-18T01:23:19.211Z,50.44
2018-03-18T01:24:54.038Z,50.76
2018-03-18T01:26:16.864Z,50.45
2018-03-18T01:27:39.753Z,50.92
2018-03-18T01:29:06.543Z,50.49
2018-03-18T01:30:37.005Z,49.96
2018-03-18T01:31:59.805Z,51.06
2018-03-18T01:33:30.611Z,50.09
2018-03-18T01:34:57.460Z,50.59
2018-03-18T01:36:24.310Z,50.09
2018-03-18T01:37:47.390Z,50.97
2018-03-18T01:39:18.331Z,50.57
2018-03-18T01:40:45.301Z,50.79
2018-03-18T01:42:08.166Z,50.73
2018-03-18T01:43:39.081Z,50.64
2018-03-18T01:45:01.931Z,51.06
2018-03-18T01:46:32.933Z,50.84
2018-03-18T01:47:55.726Z,51.06
2018-03-18T01:49:26.598Z,50.94
2018-03-18T01:50:49.497Z,50.60
2018-03-18T01:52:20.621Z,51.68
2018-03-18T01:53:47.532Z,51.07
2018-03-18T01:55:14.496Z,51.16
2018-03-18T01:56:37.618Z,51.37
2018-03-18T01:58:04.618Z,50.88
2018-03-18T01:59:35.546Z,51.91
2018-03-18T02:01:02.695Z,50.54
2018-03-18T02:02:25.569Z,51.06
2018-03-18T02:03:56.319Z,51.16
2018-03-18T02:05:23.122Z,50.85
2018-03-18T02:06:49.930Z,50.73
2018-03-18T02:08:12.854Z,51.44
2018-03-18T02:09:39.725Z,50.91
2018-03-18T02:11:06.579Z,51.74
2018-03-18T02:12:33.288Z,51.68
2018-03-18T02:14:00.333Z,51.63
2018-03-18T02:15:31.322Z,51.97
2018-03-18T02:16:58.219Z,52.23
2018-03-18T02:18:25.166Z,51.51
2018-03-18T02:19:52.095Z,52.45
2018-03-18T02:21:19.156Z,51.01
2018-03-18T02:22:46.110Z,51.92
2018-03-18T02:24:12.967Z,51.79
2018-03-18T02:25:40.028Z,50.87
2018-03-18T02:27:02.772Z,51.65
2018-03-18T02:28:29.778Z,51.47
2018-03-18T02:30:00.504Z,52.07
2018-03-18T02:31:23.698Z,50.84
2018-03-18T02:32:50.584Z,51.06
2018-03-18T02:34:17.473Z,51.85
2018-03-18T02:35:48.344Z,51.49
2018-03-18T02:37:16.386Z,51.13
2018-03-18T02:38:42.370Z,51.60
2018-03-18T02:40:09.122Z,51.04
2018-03-18T02:41:35.824Z,52.07
2018-03-18T02:43:02.783Z,51.78
2018-03-18T02:44:29.555Z,51.12
2018-03-18T02:45:52.604Z,51.31
2018-03-18T02:47:23.539Z,51.34
2018-03-18T02:48:46.471Z,51.33
2018-03-18T02:50:17.588Z,52.25
2018-03-18T02:51:40.185Z,52.26
2018-03-18T02:53:10.961Z,51.89
2018-03-18T02:54:33.775Z,51.71
2018-03-18T02:56:04.676Z,51.79
2018-03-18T02:57:31.351Z,51.75
2018-03-18T02:58:54.129Z,51.91
2018-03-18T03:00:25.209Z,51.72
2018-03-18T03:01:52.309Z,51.92
2018-03-18T03:03:15.101Z,51.20
2018-03-18T03:04:41.958Z,51.03
2018-03-18T03:06:09.034Z,51.18
2018-03-18T03:07:39.939Z,51.37
2018-03-18T03:09:06.764Z,52.25
2018-03-18T03:10:33.421Z,52.11
2018-03-18T03:12:00.332Z,52.12
2018-03-18T03:13:23.435Z,51.21
2018-03-18T03:14:50.355Z,51.72
2018-03-18T03:16:21.121Z,51.75
2018-03-18T03:17:44.112Z,51.58
2018-03-18T03:19:15.176Z,50.86
2018-03-18T03:20:42.079Z,52.14
2018-03-18T03:22:08.836Z,51.41
2018-03-18T03:23:36.087Z,51.68
2018-03-18T03:24:58.998Z,51.69
2018-03-18T03:26:25.900Z,51.03
2018-03-18T03:27:52.734Z,51.75
2018-03-18T03:29:23.789Z,51.07
2018-03-18T03:30:50.828Z,51.74
2018-03-18T03:32:17.912Z,51.86
2018-03-18T03:33:44.940Z,51.91
2018-03-18T03:35:11.657Z,51.62
2018-03-18T03:36:38.535Z,51.67
2018-03-18T03:38:01.660Z,51.84
2018-03-18T03:39:32.620Z,52.02
2018-03-18T03:40:59.453Z,51.20
2018-03-18T03:42:26.370Z,51.66
2018-03-18T03:43:49.188Z,50.89
2018-03-18T03:45:20.138Z,51.29
2018-03-18T03:46:42.950Z,52.09
2018-03-18T03:48:13.949Z,51.26
2018-03-18T03:49:40.908Z,51.24
2018-03-18T03:51:07.710Z,52.08
2018-03-18T03:52:34.782Z,50.35
2018-03-18T03:53:57.521Z,51.62
2018-03-18T03:55:28.433Z,51.84
2018-03-18T03:56:51.399Z,50.72
2018-03-18T03:58:18.464Z,51.33
2018-03-18T03:59:45.527Z,51.46
2018-03-18T04:01:16.427Z,51.12
2018-03-18T04:02:43.309Z,50.27
2018-03-18T04:04:10.187Z,50.19
2018-03-18T04:05:36.798Z,50.79
2018-03-18T04:07:03.600Z,50.62
2018-03-18T04:08:30.644Z,51.05
2018-03-18T04:09:53.365Z,50.88
2018-03-18T04:11:24.338Z,50.90
2018-03-18T04:12:51.208Z,51.28
2018-03-18T04:14:18.121Z,50.52
2018-03-18T04:15:41.261Z,50.95
2018-03-18T04:17:12.081Z,50.39
2018-03-18T04:18:39.236Z,50.20
2018-03-18T04:20:05.753Z,51.00
2018-03-18T04:21:32.796Z,50.84
2018-03-18T04:22:59.691Z,50.88
2018-03-18T04:24:26.436Z,50.02
2018-03-18T04:25:49.623Z,50.83
2018-03-18T04:27:20.462Z,50.95
2018-03-18T04:28:47.544Z,49.65
2018-03-18T04:30:14.465Z,50.35
2018-03-18T04:31:37.344Z,49.94
2018-03-18T04:33:08.103Z,51.00
2018-03-18T04:34:35.059Z,51.04
2018-03-18T04:35:58.207Z,51.00
2018-03-18T04:37:29.274Z,50.25
2018-03-18T04:38:56.316Z,50.89
2018-03-18T04:40:19.264Z,49.90
2018-03-18T04:41:50.337Z,50.85
2018-03-18T04:43:17.269Z,50.52
2018-03-18T04:44:40.090Z,50.24
2018-03-18T04:46:10.914Z,49.94
2018-03-18T04:47:37.878Z,50.30
2018-03-18T04:49:04.813Z,50.01
2018-03-18T04:50:31.894Z,49.91
2018-03-18T04:51:55.105Z,49.60
2018-03-18T04:53:21.816Z,49.91
2018-03-18T04:54:52.664Z,49.92
2018-03-18T04:56:19.826Z,49.59
2018-03-18T04:57:42.761Z,49.35
2018-03-18T04:59:13.661Z,49.97
2018-03-18T05:00:36.575Z,50.41
2018-03-18T05:02:03.274Z,50.29
2018-03-18T05:03:30.197Z,49.13
2018-03-18T05:05:01.015Z,50.38
2018-03-18T05:06:28.066Z,49.83
2018-03-18T05:07:51.072Z,49.44
2018-03-18T05:09:18.078Z,49.91
2018-03-18T05:10:49.046Z,49.82
2018-03-18T05:12:16.004Z,49.82
2018-03-18T05:13:43.040Z,49.86
2018-03-18T05:15:09.910Z,50.18
2018-03-18T05:16:36.551Z,49.64
2018-03-18T05:18:03.474Z,49.17
2018-03-18T05:19:30.317Z,49.56
2018-03-18T05:20:53.194Z,50.35
2018-03-18T05:22:24.140Z,49.58
2018-03-18T05:23:51.068Z,50.52
2018-03-18T05:25:18.100Z,49.94
2018-03-18T05:26:44.789Z,50.47
2018-03-18T05:28:11.580Z,49.99
2018-03-18T05:29:38.399Z,49.47
2018-03-18T05:31:01.592Z,49.61
2018-03-18T05:32:28.482Z,49.68
2018-03-18T05:33:55.633Z,50.10
2018-03-18T05:35:26.435Z,49.48
2018-03-18T05:36:53.351Z,49.01
2018-03-18T05:38:16.427Z,49.73
2018-03-18T05:39:47.422Z,49.76
2018-03-18T05:41:14.381Z,49.41
2018-03-18T05:42:41.291Z,49.38
2018-03-18T05:44:04.235Z,48.66
2018-03-18T05:45:31.082Z,48.80
2018-03-18T05:46:58.041Z,49.81
2018-03-18T05:48:28.774Z,49.34
2018-03-18T05:49:51.739Z,49.10
2018-03-18T05:51:22.497Z,49.17
2018-03-18T05:52:45.543Z,48.69
2018-03-18T05:54:12.475Z,48.63
2018-03-18T05:55:43.434Z,49.55
2018-03-18T05:57:10.411Z,49.37
2018-03-18T05:58:37.321Z,49.62
2018-03-18T06:00:04.245Z,48.63
2018-03-18T06:01:31.221Z,49.23
2018-03-18T06:02:54.201Z,48.41
2018-03-18T06:04:21.389Z,48.24
2018-03-18T06:05:52.401Z,48.99
2018-03-18T06:07:19.494Z,48.77
2018-03-18T06:08:46.232Z,48.21
2018-03-18T06:10:09.284Z,47.67
2018-03-18T06:11:36.339Z,47.97
2018-03-18T06:13:03.126Z,48.11
2018-03-18T06:14:34.156Z,47.09
2018-03-18T06:15:57.173Z,48.06
2018-03-18T06:17:28.056Z,47.97
2018-03-18T06:18:55.101Z,47.33
2018-03-18T06:20:22.000Z,47.29
2018-03-18T06:21:48.959Z,47.88
2018-03-18T06:23:11.642Z,48.14
2018-03-18T06:24:38.612Z,47.75
2018-03-18T06:26:05.491Z,47.40
2018-03-18T06:27:32.618Z,48.33
2018-03-18T06:29:03.628Z,47.62
2018-03-18T06:30:30.620Z,47.82
2018-03-18T06:31:57.569Z,47.00
2018-03-18T06:33:20.625Z,46.24
2018-03-18T06:34:51.246Z,46.29
2018-03-18T06:36:14.066Z,46.52
2018-03-18T06:37:45.012Z,46.58
2018-03-18T06:39:11.898Z,46.04
2018-03-18T06:40:39.052Z,46.30
2018-03-18T06:42:05.730Z,47.00
2018-03-18T06:43:32.786Z,46.57
2018-03-18T06:44:59.761Z,46.70
2018-03-18T06:46:26.717Z,45.40
2018-03-18T06:47:53.831Z,45.90
2018-03-18T06:49:16.728Z,45.64
2018-03-18T06:50:43.715Z,45.80
2018-03-18T06:52:14.584Z,45.89
2018-03-18T06:53:37.740Z,45.77
2018-03-18T06:55:04.435Z,45.57
2018-03-18T06:56:31.725Z,45.70
2018-03-18T06:57:58.535Z,45.68
2018-03-18T06:59:25.545Z,45.49
2018-03-18T07:00:52.484Z,44.89
2018-03-18T07:02:19.348Z,45.75
2018-03-18T07:03:46.425Z,45.53
2018-03-18T07:05:17.290Z,45.63
2018-03-18T07:06:40.170Z,45.06
2018-03-18T07:08:07.117Z,45.48
2018-03-18T07:09:34.072Z,44.39
2018-03-18T07:11:01.195Z,45.42
2018-03-18T07:12:32.213Z,45.07
2018-03-18T07:13:59.122Z,44.82
2018-03-18T07:15:26.096Z,45.42
2018-03-18T07:16:53.126Z,44.65
2018-03-18T07:18:19.944Z,45.26
2018-03-18T07:19:46.917Z,45.63
2018-03-18T07:21:13.930Z,45.23
2018-03-18T07:22:40.842Z,45.60
2018-03-18T07:24:07.831Z,44.98
2018-03-18T07:25:34.784Z,44.56
2018-03-18T07:27:01.765Z,44.05
2018-03-18T07:28:24.588Z,43.86
2018-03-18T07:29:51.689Z,44.44
2018-03-18T07:31:18.593Z,45.44
2018-03-18T07:32:45.391Z,44.56
2018-03-18T07:34:12.344Z,45.01
2018-03-18T07:35:43.341Z,44.10
2018-03-18T07:37:10.162Z,44.38
2018-03-18T07:38:37.011Z,44.18
2018-03-18T07:40:04.976Z,44.27
2018-03-18T07:41:31.222Z,44.35
2018-03-18T07:42:58.017Z,43.35
2018-03-18T07:44:21.044Z,43.33
2018-03-18T07:45:52.021Z,43.41
2018-03-18T07:47:19.084Z,43.60
2018-03-18T07:48:42.069Z,43.74
2018-03-18T07:50:13.041Z,43.03
2018-03-18T07:51:35.893Z,43.55
2018-03-18T07:53:06.716Z,43.14
2018-03-18T07:54:33.854Z,43.61
2018-03-18T07:55:56.882Z,43.90
2018-03-18T07:57:27.852Z,43.92
2018-03-18T07:58:54.747Z,43.16
2018-03-18T08:00:21.517Z,42.76
2018-03-18T08:01:48.616Z,42.74
2018-03-18T08:03:15.379Z,41.92
2018-03-18T08:04:42.198Z,42.56
2018-03-18T08:06:05.191Z,43.29
2018-03-18T08:07:32.094Z,42.61
2018-03-18T08:09:03.170Z,42.74
2018-03-18T08:10:29.984Z,42.75
2018-03-18T08:11:53.043Z,43.82
2018-03-18T08:13:20.026Z,42.29
2018-03-18T08:14:51.056Z,41.73
2018-03-18T08:16:14.006Z,42.63
2018-03-18T08:17:40.999Z,41.89
2018-03-18T08:19:11.978Z,41.71
2018-03-18T08:20:38.766Z,41.83
2018-03-18T08:22:05.666Z,44.03
2018-03-18T08:23:28.703Z,42.86
2018-03-18T08:24:59.858Z,42.86
2018-03-18T08:26:22.946Z,43.08
2018-03-18T08:27:54.048Z,43.07
2018-03-18T08:29:21.158Z,42.84
2018-03-18T08:30:44.065Z,42.23
2018-03-18T08:32:15.116Z,42.94
2018-03-18T08:33:38.077Z,42.21
2018-03-18T08:35:08.864Z,43.05
2018-03-18T08:36:35.703Z,42.26
2018-03-18T08:38:02.789Z,42.74
2018-03-18T08:39:25.914Z,42.17
2018-03-18T08:40:52.811Z,41.62
2018-03-18T08:42:23.754Z,40.58
2018-03-18T08:43:50.909Z,40.05
2018-03-18T08:45:17.798Z,39.99
2018-03-18T08:46:44.532Z,40.16
2018-03-18T08:48:11.657Z,40.60
2018-03-18T08:49:34.666Z,40.84
2018-03-18T08:51:01.769Z,41.62
2018-03-18T08:52:32.593Z,41.91
2018-03-18T08:53:59.679Z,41.58
2018-03-18T08:55:26.730Z,40.03
2018-03-18T08:56:53.776Z,40.67
2018-03-18T08:58:16.625Z,41.59
2018-03-18T08:59:47.464Z,38.98
2018-03-18T09:01:14.330Z,38.51
2018-03-18T09:02:37.211Z,39.25
2018-03-18T09:04:08.053Z,38.77
2018-03-18T09:05:31.059Z,38.82
2018-03-18T09:07:01.812Z,38.70
2018-03-18T09:08:29.064Z,37.93
2018-03-18T09:09:52.107Z,37.73
2018-03-18T09:11:19.084Z,38.48
2018-03-18T09:12:46.229Z,39.44
2018-03-18T09:14:13.313Z,38.68
2018-03-18T09:15:44.223Z,38.34
2018-03-18T09:17:11.090Z,38.85
2018-03-18T09:18:38.070Z,37.65
2018-03-18T09:20:05.006Z,39.06
2018-03-18T09:21:32.038Z,37.69
2018-03-18T09:22:58.808Z,38.14
2018-03-18T09:24:21.829Z,38.14
2018-03-18T09:25:52.792Z,37.68
2018-03-18T09:27:19.688Z,38.57
2018-03-18T09:28:46.871Z,38.43
2018-03-18T09:30:13.862Z,38.11
2018-03-18T09:31:36.974Z,36.25
2018-03-18T09:33:07.712Z,37.67
2018-03-18T09:34:34.833Z,37.95
2018-03-18T09:36:01.758Z,37.16
2018-03-18T09:37:28.696Z,36.92
2018-03-18T09:38:55.593Z,36.69
2018-03-18T09:40:22.581Z,36.50
2018-03-18T09:41:45.496Z,37.42
2018-03-18T09:43:16.405Z,35.99
2018-03-18T09:44:43.405Z,35.72
2018-03-18T09:46:10.343Z,37.60
2018-03-18T09:47:37.383Z,34.82
2018-03-18T09:49:00.592Z,36.91
2018-03-18T09:50:27.601Z,35.49
2018-03-18T09:51:54.699Z,35.64
2018-03-18T09:53:21.924Z,35.48
2018-03-18T09:54:53.095Z,35.26
2018-03-18T09:56:20.238Z,35.55
2018-03-18T09:57:47.216Z,34.79
2018-03-18T09:59:14.250Z,35.14
2018-03-18T10:00:41.268Z,34.08
2018-03-18T10:02:08.344Z,34.91
2018-03-18T10:03:35.652Z,33.73
2018-03-18T10:04:58.691Z,33.30
2018-03-18T10:06:29.773Z,35.13
2018-03-18T10:07:52.851Z,35.65
2018-03-18T10:09:23.780Z,35.87
2018-03-18T10:10:46.867Z,34.51
2018-03-18T10:12:17.617Z,34.84
2018-03-18T10:13:40.740Z,34.39
2018-03-18T10:15:07.685Z,36.32
2018-03-18T10:16:34.552Z,33.64
2018-03-18T10:18:05.437Z,34.81
2018-03-18T10:19:32.511Z,33.65
2018-03-18T10:20:59.372Z,32.96
2018-03-18T10:22:26.212Z,34.40
2018-03-18T10:23:53.322Z,34.26
2018-03-18T10:25:16.306Z,32.95
2018-03-18T10:26:47.199Z,34.32
2018-03-18T10:28:10.311Z,35.32
2018-03-18T10:29:37.348Z,34.59
2018-03-18T10:31:04.247Z,35.60
2018-03-18T10:32:31.331Z,35.14
2018-03-18T10:34:02.530Z,34.04
2018-03-18T10:35:29.474Z,34.71
2018-03-18T10:36:52.612Z,34.82
2018-03-18T10:38:23.868Z,34.20
2018-03-18T10:39:50.942Z,35.11
2018-03-18T10:41:17.939Z,35.40
2018-03-18T10:42:41.050Z,35.17
2018-03-18T10:44:12.070Z,34.45
2018-03-18T10:45:35.033Z,34.97
2018-03-18T10:47:06.261Z,35.59
2018-03-18T10:48:29.398Z,34.02
2018-03-18T10:50:00.530Z,36.44
2018-03-18T10:51:27.744Z,35.28
2018-03-18T10:52:54.935Z,34.91
2018-03-18T10:54:18.104Z,35.49
2018-03-18T10:55:45.273Z,35.68
2018-03-18T10:57:12.435Z,36.52
2018-03-18T10:58:43.320Z,35.44
2018-03-18T11:00:10.459Z,35.22
2018-03-18T11:01:37.239Z,37.58
2018-03-18T11:03:00.425Z,36.82
2018-03-18T11:04:31.594Z,34.15
2018-03-18T11:05:58.706Z,37.07
2018-03-18T11:07:21.867Z,35.78
2018-03-18T11:08:52.848Z,35.36
2018-03-18T11:10:20.074Z,36.05
2018-03-18T11:11:43.247Z,35.77
2018-03-18T11:13:10.408Z,35.36
2018-03-18T11:14:41.386Z,33.94
2018-03-18T11:16:04.346Z,34.55
2018-03-18T11:17:36.116Z,35.12
2018-03-18T11:18:58.308Z,37.88
2018-03-18T11:20:29.467Z,36.92
2018-03-18T11:21:52.744Z,35.67
2018-03-18T11:23:19.868Z,35.87
2018-03-18T11:24:46.973Z,36.29
2018-03-18T11:26:14.102Z,35.84
2018-03-18T11:27:45.323Z,34.64
2018-03-18T11:29:08.376Z,35.79
2018-03-18T11:30:39.507Z,35.99
2018-03-18T11:32:02.641Z,38.54
2018-03-18T11:33:33.699Z,38.33
2018-03-18T11:34:56.762Z,38.29
2018-03-18T11:36:28.073Z,37.53
2018-03-18T11:37:55.252Z,36.95
2018-03-18T11:39:18.365Z,35.96
2018-03-18T11:40:49.487Z,35.86
2018-03-18T11:42:16.637Z,34.88
2018-03-18T11:43:43.794Z,35.85
2018-03-18T11:45:06.907Z,36.62
2018-03-18T11:46:33.836Z,36.76
2018-03-18T11:48:05.088Z,35.68
2018-03-18T11:49:32.073Z,35.31
2018-03-18T11:50:55.064Z,36.28
2018-03-18T11:52:22.217Z,36.81
2018-03-18T11:53:49.307Z,36.47
2018-03-18T11:55:20.414Z,36.63
2018-03-18T11:56:43.647Z,36.35
2018-03-18T11:58:14.764Z,35.33
2018-03-18T11:59:37.663Z,35.60
2018-03-18T12:01:08.733Z,35.30
2018-03-18T12:02:35.779Z,36.00
2018-03-18T12:04:03.009Z,37.47
2018-03-18T12:05:26.079Z,35.03
2018-03-18T12:06:53.167Z,36.03
2018-03-18T12:08:24.008Z,36.31
2018-03-18T12:09:51.219Z,35.96
2018-03-18T12:11:18.212Z,35.33
2018-03-18T12:12:45.231Z,35.45
2018-03-18T12:14:12.519Z,36.55
2018-03-18T12:15:35.615Z,36.13
2018-03-18T12:17:02.647Z,36.05
2018-03-18T12:18:29.795Z,34.77
2018-03-18T12:19:56.773Z,35.60
2018-03-18T12:21:28.823Z,34.95
2018-03-18T12:22:50.909Z,34.84
2018-03-18T12:24:18.027Z,36.27
2018-03-18T12:25:49.243Z,35.79
2018-03-18T12:27:16.454Z,35.78
2018-03-18T12:28:43.545Z,34.10
2018-03-18T12:30:06.574Z,34.98
2018-03-18T12:31:33.443Z,34.85
2018-03-18T12:33:04.680Z,34.75
2018-03-18T12:34:27.791Z,34.11
2018-03-18T12:35:58.931Z,36.35
2018-03-18T12:37:26.093Z,37.05
2018-03-18T12:38:49.324Z,35.34
2018-03-18T12:40:16.383Z,35.62
2018-03-18T12:41:47.356Z,35.74
2018-03-18T12:43:10.548Z,36.31
2018-03-18T12:44:37.627Z,35.75
2018-03-18T12:46:08.605Z,36.53
2018-03-18T12:47:31.871Z,35.90
2018-03-18T12:48:59.076Z,35.85
2018-03-18T12:50:26.289Z,36.40
2018-03-18T12:51:57.289Z,37.30
2018-03-18T12:53:24.427Z,35.74
2018-03-18T12:54:47.709Z,36.13
2018-03-18T12:56:18.650Z,36.66
2018-03-18T12:57:41.993Z,36.30
2018-03-18T12:59:09.061Z,34.48
2018-03-18T13:00:36.157Z,36.07
2018-03-18T13:02:03.386Z,36.05
2018-03-18T13:03:30.658Z,37.28
2018-03-18T13:04:57.993Z,36.74
2018-03-18T13:06:29.092Z,38.00
2018-03-18T13:07:56.234Z,36.97
2018-03-18T13:09:19.617Z,36.26
2018-03-18T13:10:50.724Z,36.15
2018-03-18T13:12:13.844Z,36.35
2018-03-18T13:13:40.997Z,35.80
2018-03-18T13:15:12.049Z,36.53
2018-03-18T13:16:35.186Z,36.46
2018-03-18T13:18:06.380Z,37.32
2018-03-18T13:19:33.483Z,36.37
2018-03-18T13:20:56.450Z,36.78
2018-03-18T13:22:23.712Z,36.92
2018-03-18T13:23:54.855Z,37.00
2018-03-18T13:25:22.050Z,38.21
2018-03-18T13:26:45.273Z,36.97
2018-03-18T13:28:16.385Z,37.27
2018-03-18T13:29:39.347Z,38.27
2018-03-18T13:31:06.279Z,38.13
2018-03-18T13:32:33.194Z,35.94
2018-03-18T13:34:04.275Z,36.42
2018-03-18T13:35:27.534Z,37.47
2018-03-18T13:36:54.783Z,38.55
2018-03-18T13:38:25.978Z,38.80
2018-03-18T13:39:53.097Z,39.79
2018-03-18T13:41:16.268Z,39.25
2018-03-18T13:42:43.568Z,41.12
2018-03-18T13:44:10.645Z,40.46
2018-03-18T13:45:41.841Z,40.29
2018-03-18T13:47:08.852Z,41.04
2018-03-18T13:48:32.078Z,39.38
2018-03-18T13:50:03.281Z,40.29
2018-03-18T13:51:30.420Z,41.35
2018-03-18T13:52:53.645Z,40.70
2018-03-18T13:54:20.824Z,40.79
2018-03-18T13:55:51.946Z,40.99
2018-03-18T13:57:18.974Z,41.28
2018-03-18T13:58:45.944Z,42.38
2018-03-18T14:00:09.147Z,42.55
2018-03-18T14:01:40.206Z,42.75
2018-03-18T14:03:03.059Z,42.69
2018-03-18T14:04:34.207Z,42.47
2018-03-18T14:06:01.465Z,42.67
2018-03-18T14:07:28.475Z,43.82
2018-03-18T14:08:55.618Z,43.90
2018-03-18T14:10:18.780Z,43.97
2018-03-18T14:11:50.056Z,44.79
2018-03-18T14:13:13.179Z,43.12
2018-03-18T14:14:44.346Z,43.99
2018-03-18T14:16:11.385Z,43.71
2018-03-18T14:17:34.485Z,43.00
2018-03-18T14:19:01.524Z,44.07
2018-03-18T14:20:32.681Z,44.65
2018-03-18T14:21:59.832Z,43.55
2018-03-18T14:23:22.969Z,43.71
2018-03-18T14:24:50.155Z,43.09
2018-03-18T14:26:21.196Z,43.95
2018-03-18T14:27:48.326Z,45.10
2018-03-18T14:29:15.489Z,44.13
2018-03-18T14:30:42.550Z,45.39
2018-03-18T14:32:05.515Z,45.06
2018-03-18T14:33:36.473Z,45.78
2018-03-18T14:35:03.723Z,45.63
2018-03-18T14:36:30.983Z,45.29
2018-03-18T14:37:57.982Z,46.16
2018-03-18T14:39:21.297Z,46.11
2018-03-18T14:40:48.388Z,46.54
2018-03-18T14:42:15.514Z,46.93
2018-03-18T14:43:46.558Z,46.31
2018-03-18T14:45:09.803Z,46.13
2018-03-18T14:46:36.974Z,46.03
2018-03-18T14:48:07.948Z,47.03
2018-03-18T14:49:35.110Z,47.04
2018-03-18T14:50:58.282Z,48.16
2018-03-18T14:52:29.438Z,48.30
2018-03-18T14:53:56.436Z,48.80
2018-03-18T14:55:23.630Z,48.73
2018-03-18T14:56:50.840Z,48.97
2018-03-18T14:58:17.954Z,50.17
2018-03-18T14:59:45.067Z,49.58
2018-03-18T15:01:12.019Z,48.49
2018-03-18T15:02:39.062Z,48.84
2018-03-18T15:04:06.045Z,48.94
2018-03-18T15:05:29.074Z,49.09
2018-03-18T15:07:00.204Z,49.34
2018-03-18T15:08:27.380Z,48.91
2018-03-18T15:09:54.646Z,49.12
2018-03-18T15:11:21.744Z,50.02
2018-03-18T15:12:48.781Z,49.76
2018-03-18T15:14:11.978Z,49.48
2018-03-18T15:15:43.008Z,49.27
2018-03-18T15:17:06.131Z,49.97
2018-03-18T15:18:33.375Z,51.16
2018-03-18T15:20:00.613Z,50.70
2018-03-18T15:21:31.731Z,51.06
2018-03-18T15:22:54.830Z,49.53
2018-03-18T15:24:25.904Z,50.58
2018-03-18T15:25:48.953Z,50.27
2018-03-18T15:27:16.086Z,50.85
2018-03-18T15:28:43.235Z,50.77
2018-03-18T15:30:14.240Z,50.27
2018-03-18T15:31:37.261Z,51.26
2018-03-18T15:33:08.302Z,51.25
2018-03-18T15:34:31.432Z,52.26
2018-03-18T15:36:02.417Z,52.39
2018-03-18T15:37:29.634Z,53.51
2018-03-18T15:38:56.772Z,53.79
2018-03-18T15:40:23.690Z,55.07
2018-03-18T15:41:50.809Z,54.25
2018-03-18T15:43:13.884Z,54.03
2018-03-18T15:44:41.150Z,54.64
2018-03-18T15:46:12.054Z,53.21
2018-03-18T15:47:35.264Z,53.88
2018-03-18T15:49:06.297Z,54.85
2018-03-18T15:50:33.422Z,54.44
2018-03-18T15:52:00.388Z,55.00
2018-03-18T15:53:23.789Z,54.92
2018-03-18T15:54:50.899Z,55.16
2018-03-18T15:56:21.866Z,55.01
2018-03-18T15:57:45.070Z,54.55
2018-03-18T15:59:15.950Z,55.53
2018-03-18T16:00:43.011Z,55.46
2018-03-18T16:02:10.048Z,54.82
2018-03-18T16:03:32.972Z,55.30
2018-03-18T16:05:00.277Z,55.17
2018-03-18T16:06:31.424Z,54.12
2018-03-18T16:07:54.748Z,55.48
2018-03-18T16:09:25.651Z,56.09
2018-03-18T16:10:48.844Z,56.38
2018-03-18T16:12:15.849Z,56.27
2018-03-18T16:13:42.908Z,56.61
2018-03-18T16:15:10.127Z,57.67
2018-03-18T16:16:37.092Z,57.30
2018-03-18T16:18:07.743Z,57.20
2018-03-18T16:19:34.704Z,57.00
2018-03-18T16:21:01.922Z,57.68
2018-03-18T16:22:28.968Z,57.98
2018-03-18T16:23:56.087Z,57.38
2018-03-18T16:25:19.101Z,57.47
2018-03-18T16:26:46.207Z,57.45
2018-03-18T16:28:17.286Z,57.63
2018-03-18T16:29:44.253Z,57.19
2018-03-18T16:31:11.365Z,57.62
2018-03-18T16:32:34.192Z,57.18
2018-03-18T16:34:05.370Z,57.10
2018-03-18T16:35:28.483Z,57.48
2018-03-18T16:36:59.619Z,57.74
2018-03-18T16:38:26.708Z,57.94
2018-03-18T16:39:54.784Z,58.07
2018-03-18T16:41:16.763Z,58.17
2018-03-18T16:42:47.934Z,58.37
2018-03-18T16:44:15.106Z,58.21
2018-03-18T16:45:38.233Z,58.56
2018-03-18T16:47:05.325Z,58.39
2018-03-18T16:48:36.431Z,58.79
2018-03-18T16:50:03.435Z,59.52
2018-03-18T16:51:30.548Z,59.48
2018-03-18T16:52:53.629Z,59.53
2018-03-18T16:54:24.733Z,59.28
2018-03-18T16:55:47.994Z,59.16
2018-03-18T16:57:19.102Z,59.92
2018-03-18T16:58:46.146Z,60.44
2018-03-18T17:00:13.371Z,61.06
2018-03-18T17:01:40.305Z,61.64
2018-03-18T17:03:07.232Z,61.12
2018-03-18T17:04:30.406Z,61.32
2018-03-18T17:05:57.322Z,61.15
2018-03-18T17:07:24.532Z,61.83
2018-03-18T17:08:51.652Z,61.95
2018-03-18T17:10:18.901Z,61.92
2018-03-18T17:11:49.907Z,62.41
2018-03-18T17:13:16.814Z,62.43
2018-03-18T17:14:43.816Z,62.69
2018-03-18T17:16:06.803Z,63.11
2018-03-18T17:17:33.588Z,63.44
2018-03-18T17:19:00.840Z,63.56
2018-03-18T17:20:31.962Z,63.47
2018-03-18T17:21:58.882Z,62.86
2018-03-18T17:23:22.033Z,63.32
2018-03-18T17:24:53.217Z,63.71
2018-03-18T17:26:16.359Z,63.93
2018-03-18T17:27:47.289Z,63.28
2018-03-18T17:29:10.287Z,63.98
2018-03-18T17:30:41.415Z,64.13
2018-03-18T17:32:08.289Z,63.42
2018-03-18T17:33:31.482Z,63.95
2018-03-18T17:35:02.633Z,64.04
2018-03-18T17:36:29.708Z,64.50
2018-03-18T17:37:52.826Z,64.21
2018-03-18T17:39:19.992Z,64.50
2018-03-18T17:40:47.110Z,64.65
2018-03-18T17:42:13.969Z,64.97
2018-03-18T17:43:44.957Z,65.00
2018-03-18T17:45:11.829Z,65.36
2018-03-18T17:46:38.673Z,65.47
2018-03-18T17:48:05.557Z,66.17
2018-03-18T17:49:28.625Z,66.36
2018-03-18T17:50:59.621Z,66.57
2018-03-18T17:52:22.731Z,66.34
2018-03-18T17:53:53.825Z,66.63
2018-03-18T17:55:16.786Z,66.56
2018-03-18T17:56:47.883Z,66.92
2018-03-18T17:58:15.034Z,66.98
2018-03-18T17:59:41.906Z,66.89
2018-03-18T18:01:08.916Z,66.86
2018-03-18T18:02:36.004Z,67.31
2018-03-18T18:04:03.256Z,67.34
2018-03-18T18:05:30.258Z,67.34
2018-03-18T18:06:53.331Z,67.35
2018-03-18T18:08:24.402Z,67.20
2018-03-18T18:09:47.448Z,67.48
2018-03-18T18:11:14.548Z,67.63
2018-03-18T18:12:41.766Z,67.70
2018-03-18T18:14:08.731Z,67.81
2018-03-18T18:15:39.738Z,67.87
2018-03-18T18:17:06.760Z,67.97
2018-03-18T18:18:33.807Z,68.11
2018-03-18T18:20:00.893Z,68.23
2018-03-18T18:21:28.008Z,68.14
2018-03-18T18:22:51.122Z,68.32
2018-03-18T18:24:22.143Z,68.40
2018-03-18T18:25:45.235Z,68.38
2018-03-18T18:27:12.333Z,68.58
2018-03-18T18:28:43.395Z,68.71
2018-03-18T18:30:10.323Z,69.02
2018-03-18T18:31:37.058Z,69.08
2018-03-18T18:33:00.239Z,69.03
2018-03-18T18:34:27.309Z,68.86
2018-03-18T18:35:54.358Z,69.21
2018-03-18T18:37:21.535Z,69.37
2018-03-18T18:38:48.561Z,69.81
2018-03-18T18:40:15.673Z,69.70